Wednesday, October 17, 2018, 3:28 AM EDT
Back to Local

KLWM, Lawrence Municipal Airport

Location: North Andover, MA, United States Lat: 42.717
Local Time: 3:28 AM EDT ( 7:28 GMT) Lon: -71.133
Time Zone: US/Eastern Elev: 147 ft

Show me the last for .
Show Coded

Time T Td Feel RH Dir Speed Gust Alt SLP Vis Weather Sky Remarks
2018-10-17 02:54 42 35 40 75 200° 3 - 29.98 29.98 10 CLR None
2018-10-17 01:54 42 35 - 75 - Calm - 29.99 29.99 10 CLR 6-hr Min Temp (2am): 41.0°F
6-hr Max Temp (2am): 51.1°F
2018-10-16 23:54 44 35 43 70 190° 3 - 30.02 30.02 10 CLR None
2018-10-16 22:54 45 35 43 68 190° 5 - 30.02 30.02 10 CLR None
2018-10-16 21:54 47 35 - 63 - Calm - 30.02 30.02 10 CLR None
2018-10-16 20:54 47 34 44 60 210° 6 - 30.02 30.02 10 CLR None
2018-10-16 19:54 50 34 46 53 240° 9 - 30.01 30.01 10 CLR 6-hr Min Temp (8pm): 48.9°F
6-hr Max Temp (8pm): 59.0°F
2018-10-16 18:54 52 32 - 46 260° 9 - 30.01 30.01 10 CLR None
2018-10-16 17:54 55 32 - 41 240° 8 - 29.99 29.99 10 CLR None
2018-10-16 16:54 58 32 - 37 250° 12 - 29.97 29.97 10 CLR None
2018-10-16 15:54 59 32 - 35 260° 8 - 29.98 29.98 10 CLR None
2018-10-16 14:54 59 31 - 34 280° 10 23 29.98 29.98 10 CLR None
2018-10-16 13:54 59 31 - 34 270° 13 23 29.99 29.98 10 CLR 6-hr Min Temp (2pm): 46.9°F
6-hr Max Temp (2pm): 59.0°F
2018-10-16 12:54 58 32 - 37 260° 14 20 30.00 30.00 10 CLR None
2018-10-16 11:54 56 31 - 38 260° 14 25 30.02 30.02 10 CLR None
2018-10-16 10:54 54 31 - 41 270° 14 20 30.03 30.03 10 CLR None
2018-10-16 09:54 51 30 - 44 280° 18 29 30.02 30.02 10 CLR None
2018-10-16 08:54 49 30 42 47 290° 9 21 30.02 30.02 10 CLR None
2018-10-16 07:54 47 28 42 47 270° 12 - 29.99 29.99 10 CLR 24-hr Precip Total (8am): 0.05"
6-hr Min Temp (8am): 46.0°F
6-hr Max Temp (8am): 59.0°F
2018-10-16 06:54 47 26 42 43 260° 12 - 29.96 29.96 10 CLR None
2018-10-16 05:54 49 26 42 40 270° 13 20 29.94 29.94 10 CLR None
2018-10-16 04:54 51 27 - 38 280° 13 30 29.91 29.91 10 CLR Peak wind: 37 mph (33 kts) from 310° at 09 min
2018-10-16 03:54 54 29 - 38 280° 23 37 29.87 29.87 10 CLR Peak wind: 41 mph (36 kts) from 300° at 33 min

Support USWX by starting your Amazon purchase here.